Time;durP1;ratioP1;P1;durP2;ratioP2;P2;SDS_P1;SDS_P2;PMS_P1;PMS_P2;Temp;Humidity;BMP_temperature;BMP_pressure;BME280_temperature;BME280_humidity;BME280_pressure;Samples;Min_cycle;Max_cycle;Signal;HPM_P1;HPM_P2
2022/04/05 00:02:25;;;;;;;12.63;2.95;;;6.90;99.90;;;;;;5134286;27;20080;-66
2022/04/05 00:04:51;;;;;;;11.20;1.63;;;6.90;99.90;;;;;;5115048;27;20413;-66
2022/04/05 00:07:16;;;;;;;10.93;2.00;;;6.90;99.90;;;;;;5115442;27;20062;-66
2022/04/05 00:09:42;;;;;;;9.60;2.42;;;6.90;99.90;;;;;;5133516;27;20468;-66
2022/04/05 00:12:08;;;;;;;6.22;1.20;;;6.90;99.90;;;;;;5115522;27;20047;-66
2022/04/05 00:14:34;;;;;;;7.43;1.73;;;6.90;99.90;;;;;;5134003;27;20075;-66
2022/04/05 00:17:00;;;;;;;12.07;2.10;;;6.90;99.90;;;;;;5133033;27;20083;-66
2022/04/05 00:19:25;;;;;;;13.20;2.20;;;6.90;99.90;;;;;;5115415;27;20051;-66
2022/04/05 00:21:54;;;;;;;12.13;1.25;;;6.90;99.90;;;;;;5115431;27;20051;-66
2022/04/05 00:24:20;;;;;;;8.73;1.83;;;6.90;99.90;;;;;;5113826;28;20051;-66
2022/04/05 00:26:46;;;;;;;7.20;1.52;;;6.80;99.90;;;;;;5115176;27;20121;-66
2022/04/05 00:29:12;;;;;;;4.05;1.80;;;6.90;99.90;;;;;;5114441;27;20130;-66
2022/04/05 00:31:37;;;;;;;9.10;1.88;;;6.80;99.90;;;;;;5114311;27;20505;-67
2022/04/05 00:34:03;;;;;;;4.78;1.50;;;6.80;99.90;;;;;;5133318;27;20096;-66
2022/04/05 00:36:29;;;;;;;12.07;1.58;;;6.80;99.90;;;;;;5133715;27;20043;-67
2022/04/05 00:38:54;;;;;;;11.95;2.00;;;6.90;99.90;;;;;;5114391;27;20142;-66
2022/04/05 00:41:20;;;;;;;12.00;2.20;;;6.80;99.90;;;;;;5133821;27;20042;-66
2022/04/05 00:43:46;;;;;;;9.63;2.25;;;6.80;99.90;;;;;;5114903;27;20043;-67
2022/04/05 00:46:12;;;;;;;17.02;2.90;;;6.80;99.90;;;;;;5114196;27;20078;-66
2022/04/05 00:48:55;;;;;;;7.80;1.42;;;6.80;99.90;;;;;;5133466;27;20090;-67
2022/04/05 00:51:22;;;;;;;7.70;1.88;;;6.80;99.90;;;;;;5133597;27;20088;-67
2022/04/05 00:53:51;;;;;;;11.65;1.88;;;6.80;99.90;;;;;;5114458;27;20394;-66
2022/04/05 00:56:19;;;;;;;13.90;2.05;;;6.70;99.90;;;;;;5114379;27;20478;-66
2022/04/05 00:58:48;;;;;;;5.65;2.42;;;6.80;99.90;;;;;;5114255;27;20055;-66
2022/04/05 01:01:16;;;;;;;4.57;1.30;;;6.80;99.90;;;;;;5114315;27;20043;-66
2022/04/05 01:03:48;;;;;;;10.20;1.75;;;6.80;99.90;;;;;;5133179;27;20064;-66
2022/04/05 01:06:16;;;;;;;9.82;2.50;;;6.80;99.90;;;;;;5114045;27;20039;-66
2022/04/05 01:08:47;;;;;;;7.82;2.05;;;6.80;99.90;;;;;;5114478;27;20057;-66
2022/04/05 01:11:13;;;;;;;7.72;1.42;;;6.80;99.90;;;;;;5114230;27;20462;-66
2022/04/05 01:13:38;;;;;;;8.80;2.22;;;6.80;99.90;;;;;;5114060;28;20038;-66
2022/04/05 01:16:04;;;;;;;14.18;2.25;;;6.80;99.90;;;;;;5132856;27;20560;-66
2022/04/05 01:18:30;;;;;;;8.52;2.65;;;6.80;99.90;;;;;;5131734;27;20095;-66
2022/04/05 01:20:56;;;;;;;9.15;1.30;;;6.80;99.90;;;;;;5105476;28;20114;-66
2022/04/05 01:23:23;;;;;;;10.35;2.45;;;6.80;99.90;;;;;;5074585;28;20074;-66
2022/04/05 01:25:49;;;;;;;8.70;2.42;;;6.80;99.90;;;;;;5094290;28;20177;-66
2022/04/05 01:28:15;;;;;;;15.55;2.50;;;6.80;99.90;;;;;;5092893;28;20137;-66
2022/04/05 01:30:41;;;;;;;10.20;2.05;;;6.80;99.90;;;;;;5083399;28;20056;-66
2022/04/05 01:33:07;;;;;;;9.30;2.28;;;6.80;99.90;;;;;;5073028;28;20048;-67
2022/04/05 01:35:34;;;;;;;9.25;2.58;;;6.80;99.90;;;;;;5091025;28;20039;-66
2022/04/05 01:38:02;;;;;;;6.57;1.08;;;6.80;99.90;;;;;;5073493;28;20402;-67
2022/04/05 01:40:28;;;;;;;10.57;2.65;;;6.80;99.90;;;;;;5092032;28;20040;-66
2022/04/05 01:42:53;;;;;;;10.15;1.63;;;6.80;99.90;;;;;;5091174;28;20043;-66
2022/04/05 01:45:19;;;;;;;8.40;1.85;;;6.80;99.90;;;;;;5091577;28;20097;-66
2022/04/05 01:47:45;;;;;;;8.77;2.05;;;6.80;99.90;;;;;;5073414;28;20044;-66
2022/04/05 01:50:10;;;;;;;12.05;1.90;;;6.80;99.90;;;;;;5072426;28;20095;-66
2022/04/05 01:52:36;;;;;;;12.98;2.38;;;6.80;99.90;;;;;;5091576;28;20042;-67
2022/04/05 01:55:03;;;;;;;15.18;2.63;;;6.80;99.90;;;;;;5072862;28;20048;-66
2022/04/05 01:57:28;;;;;;;13.27;2.70;;;6.80;99.90;;;;;;5091756;28;20044;-66
2022/04/05 01:59:54;;;;;;;11.45;2.60;;;6.80;99.90;;;;;;5073916;28;20050;-67
2022/04/05 02:02:20;;;;;;;13.82;2.25;;;6.80;99.90;;;;;;5090852;28;20158;-66
2022/04/05 02:04:45;;;;;;;15.63;2.80;;;6.80;99.90;;;;;;5091708;28;20094;-66
2022/04/05 02:07:16;;;;;;;11.68;2.55;;;6.80;99.90;;;;;;5091247;28;20048;-67
2022/04/05 02:09:42;;;;;;;11.95;1.98;;;6.80;99.90;;;;;;5072636;28;20048;-66
2022/04/05 02:12:09;;;;;;;14.55;2.67;;;6.80;99.90;;;;;;5072997;28;20083;-66
2022/04/05 02:14:36;;;;;;;9.80;2.22;;;6.70;99.90;;;;;;5091602;28;20454;-66
2022/04/05 02:17:02;;;;;;;19.60;2.97;;;6.80;99.90;;;;;;5090539;28;20119;-66
2022/04/05 02:19:31;;;;;;;9.75;2.00;;;6.70;99.90;;;;;;5091509;28;20119;-66
2022/04/05 02:21:57;;;;;;;17.70;3.00;;;6.70;99.90;;;;;;5091010;28;20038;-66
2022/04/05 02:24:22;;;;;;;14.40;2.40;;;6.70;99.90;;;;;;5072880;28;20130;-66
2022/04/05 02:26:49;;;;;;;17.75;3.63;;;6.70;99.90;;;;;;5073537;28;20048;-66
2022/04/05 02:29:14;;;;;;;12.45;3.15;;;6.70;99.90;;;;;;5091111;28;20141;-66
2022/04/05 02:31:41;;;;;;;13.73;1.77;;;6.70;99.90;;;;;;5072705;28;20078;-66
2022/04/05 02:34:07;;;;;;;13.50;2.88;;;6.70;99.90;;;;;;5072891;28;20060;-66
2022/04/05 02:36:32;;;;;;;15.63;2.70;;;6.60;99.90;;;;;;5091525;28;20425;-66
2022/04/05 02:38:58;;;;;;;19.63;2.65;;;6.60;99.90;;;;;;5090523;28;20036;-66
2022/04/05 02:41:24;;;;;;;8.80;1.83;;;6.60;99.90;;;;;;5091362;28;20040;-66
2022/04/05 02:43:49;;;;;;;17.95;2.65;;;6.60;99.90;;;;;;5073268;28;20105;-66
2022/04/05 02:46:15;;;;;;;12.00;2.45;;;6.60;99.90;;;;;;5072142;28;20044;-66
2022/04/05 02:48:43;;;;;;;10.02;1.60;;;6.60;99.90;;;;;;5092708;28;20486;-66
2022/04/05 02:51:13;;;;;;;19.45;2.15;;;6.60;99.90;;;;;;5094527;28;20115;-66
2022/04/05 02:53:39;;;;;;;17.38;2.97;;;6.60;99.90;;;;;;5075835;28;20052;-66
2022/04/05 02:56:07;;;;;;;12.35;2.35;;;6.60;99.90;;;;;;5076285;28;20508;-66
2022/04/05 02:58:33;;;;;;;13.75;2.53;;;6.50;99.90;;;;;;5094016;28;20044;-66
2022/04/05 03:00:59;;;;;;;16.85;2.30;;;6.60;99.90;;;;;;5105168;27;20050;-66
2022/04/05 03:03:25;;;;;;;7.32;1.83;;;6.50;99.90;;;;;;5100063;27;20048;-66
2022/04/05 03:05:50;;;;;;;19.40;2.60;;;6.50;99.90;;;;;;5132564;27;20039;-66
2022/04/05 03:08:16;;;;;;;13.73;2.97;;;6.50;99.90;;;;;;5122644;27;20039;-65
2022/04/05 03:10:41;;;;;;;19.30;3.08;;;6.50;99.90;;;;;;5096354;28;20043;-66
2022/04/05 03:13:07;;;;;;;8.93;2.13;;;6.50;99.90;;;;;;5125333;27;20049;-66
2022/04/05 03:15:33;;;;;;;10.95;1.73;;;6.40;99.90;;;;;;5117057;27;20077;-66
2022/04/05 03:17:58;;;;;;;16.00;2.05;;;6.40;99.90;;;;;;5135001;27;20039;-65
2022/04/05 03:20:24;;;;;;;15.45;2.40;;;6.40;99.90;;;;;;5114045;27;20044;-66
2022/04/05 03:22:52;;;;;;;14.65;1.85;;;6.40;99.90;;;;;;5114823;28;20048;-66
2022/04/05 03:25:17;;;;;;;12.27;2.72;;;6.40;99.90;;;;;;5114362;28;20043;-66
2022/04/05 03:27:44;;;;;;;13.35;2.70;;;6.40;99.90;;;;;;5095802;28;20115;-66
2022/04/05 03:30:12;;;;;;;21.08;3.67;;;6.40;99.90;;;;;;5095971;28;20066;-66
2022/04/05 03:32:38;;;;;;;21.30;3.58;;;6.40;99.90;;;;;;5107048;28;20439;-66
2022/04/05 03:35:05;;;;;;;13.90;2.92;;;6.40;99.90;;;;;;5085410;28;20123;-66
2022/04/05 03:37:31;;;;;;;12.25;2.20;;;6.40;99.90;;;;;;5114336;28;20042;-66
2022/04/05 03:39:56;;;;;;;16.95;3.33;;;6.40;99.90;;;;;;5087408;28;20393;-66
2022/04/05 03:42:22;;;;;;;16.05;3.17;;;6.40;99.90;;;;;;5075047;28;20051;-66
2022/04/05 03:44:47;;;;;;;10.98;2.33;;;6.40;99.90;;;;;;5075883;28;20036;-66
2022/04/05 03:47:13;;;;;;;13.70;2.97;;;6.40;99.90;;;;;;5093384;28;20084;-66
2022/04/05 03:49:39;;;;;;;11.73;2.88;;;6.40;99.90;;;;;;5092827;28;20052;-66
2022/04/05 03:52:06;;;;;;;11.15;3.22;;;6.40;99.90;;;;;;5075577;28;20432;-66
2022/04/05 03:54:31;;;;;;;19.00;3.05;;;6.30;99.90;;;;;;5093715;28;20054;-66
2022/04/05 03:56:57;;;;;;;8.65;1.92;;;6.30;99.90;;;;;;5074290;28;20051;-66
2022/04/05 03:59:22;;;;;;;20.85;2.83;;;6.40;99.90;;;;;;5075273;28;20040;-66
2022/04/05 04:01:48;;;;;;;16.02;2.42;;;6.40;99.90;;;;;;5074773;28;20044;-66
2022/04/05 04:04:13;;;;;;;24.92;3.58;;;6.40;99.90;;;;;;5093343;28;20562;-66
2022/04/05 04:06:39;;;;;;;12.57;2.00;;;6.40;99.90;;;;;;5075465;28;20052;-66
2022/04/05 04:09:05;;;;;;;16.38;2.80;;;6.30;99.90;;;;;;5074211;28;20055;-66
2022/04/05 04:11:30;;;;;;;10.50;2.20;;;6.30;99.90;;;;;;5095284;28;20040;-66
2022/04/05 04:13:56;;;;;;;19.23;2.92;;;6.30;99.90;;;;;;5085213;28;20479;-66
2022/04/05 04:16:24;;;;;;;21.25;3.08;;;6.30;99.90;;;;;;5076700;28;20043;-66
2022/04/05 04:18:50;;;;;;;12.95;2.20;;;6.30;99.90;;;;;;5106840;28;20405;-66
2022/04/05 04:21:16;;;;;;;11.88;2.55;;;6.30;99.90;;;;;;5076214;28;20040;-66
2022/04/05 04:23:42;;;;;;;9.80;2.05;;;6.30;99.90;;;;;;5091151;28;20562;-66
2022/04/05 04:26:07;;;;;;;13.00;2.75;;;6.20;99.90;;;;;;5113143;28;20036;-66
2022/04/05 04:28:34;;;;;;;17.58;3.42;;;6.20;99.90;;;;;;5087666;28;20044;-66
2022/04/05 04:31:00;;;;;;;18.23;3.30;;;6.20;99.90;;;;;;5073899;28;20074;-66
2022/04/05 04:33:25;;;;;;;25.05;3.67;;;6.10;99.90;;;;;;5074563;28;20048;-66
2022/04/05 04:35:52;;;;;;;13.88;2.58;;;6.10;99.90;;;;;;5108477;28;20716;-66
2022/04/05 04:38:18;;;;;;;17.05;2.92;;;6.10;99.90;;;;;;5112470;27;20374;-66
2022/04/05 04:40:47;;;;;;;23.05;2.80;;;6.10;99.90;;;;;;5103094;28;20122;-66
2022/04/05 04:43:15;;;;;;;10.98;2.00;;;6.20;99.90;;;;;;5123025;27;20043;-65
2022/04/05 04:45:40;;;;;;;12.27;2.33;;;6.10;99.90;;;;;;5124411;27;20051;-66
2022/04/05 04:48:06;;;;;;;14.88;3.05;;;6.10;99.90;;;;;;5100684;28;20050;-66
2022/04/05 04:50:32;;;;;;;17.08;2.33;;;6.10;99.90;;;;;;5113050;28;20087;-66
2022/04/05 04:52:57;;;;;;;40.45;5.80;;;6.10;99.90;;;;;;5123845;27;20050;-66
2022/04/05 04:55:24;;;;;;;15.80;2.60;;;6.10;99.90;;;;;;5133407;27;20062;-66
2022/04/05 04:57:50;;;;;;;16.58;3.20;;;6.10;99.90;;;;;;5114803;27;20059;-66
2022/04/05 05:00:19;;;;;;;15.35;2.40;;;6.10;99.90;;;;;;5114012;27;20043;-66
2022/04/05 05:02:49;;;;;;;15.82;2.28;;;6.10;99.90;;;;;;5133172;27;20047;-66
2022/04/05 05:05:21;;;;;;;13.48;1.90;;;6.10;99.90;;;;;;5132360;27;20073;-66
2022/04/05 05:07:49;;;;;;;20.50;2.92;;;6.10;99.90;;;;;;5122560;27;20048;-66
2022/04/05 05:10:15;;;;;;;15.88;3.15;;;6.10;99.90;;;;;;5097092;27;20911;-66
2022/04/05 05:12:42;;;;;;;7.20;2.15;;;6.10;99.90;;;;;;5123069;27;20079;-66
2022/04/05 05:15:09;;;;;;;9.77;2.60;;;6.10;99.90;;;;;;5112405;28;20081;-66
2022/04/05 05:17:35;;;;;;;8.90;2.28;;;6.10;99.90;;;;;;5094241;28;20123;-66
2022/04/05 05:20:02;;;;;;;12.30;2.35;;;6.10;99.90;;;;;;5108514;27;20054;-66
2022/04/05 05:22:28;;;;;;;23.17;2.83;;;6.10;99.90;;;;;;5132959;27;20047;-66
2022/04/05 05:24:53;;;;;;;10.95;2.85;;;6.10;99.90;;;;;;5132875;27;20389;-66
2022/04/05 05:27:19;;;;;;;9.68;2.30;;;6.10;99.90;;;;;;5113334;27;20083;-66
2022/04/05 05:29:47;;;;;;;17.75;2.60;;;6.10;99.90;;;;;;5114186;27;20043;-66
2022/04/05 05:32:13;;;;;;;6.85;1.95;;;6.10;99.90;;;;;;5114114;27;20469;-66
2022/04/05 05:34:38;;;;;;;14.45;2.72;;;6.20;99.90;;;;;;5098810;28;20043;-66
2022/04/05 05:37:05;;;;;;;13.55;2.47;;;6.20;99.90;;;;;;5102451;28;20054;-66
2022/04/05 05:39:31;;;;;;;12.48;2.50;;;6.20;99.90;;;;;;5108589;28;20047;-66
2022/04/05 05:41:57;;;;;;;15.25;2.38;;;6.30;99.90;;;;;;5127288;27;20050;-66
2022/04/05 05:44:23;;;;;;;8.90;2.15;;;6.30;99.90;;;;;;5126753;28;20039;-66
2022/04/05 05:46:49;;;;;;;16.75;2.50;;;6.30;99.90;;;;;;5093938;28;20047;-66
2022/04/05 05:49:14;;;;;;;16.08;2.28;;;6.30;99.90;;;;;;5089402;28;20067;-66
2022/04/05 05:51:40;;;;;;;12.40;2.17;;;6.40;99.90;;;;;;5090390;28;20388;-65
2022/04/05 05:54:06;;;;;;;9.10;2.15;;;6.40;99.90;;;;;;5091490;28;20072;-66
2022/04/05 05:56:31;;;;;;;10.13;1.95;;;6.40;99.90;;;;;;5091117;28;20478;-66
2022/04/05 05:58:57;;;;;;;11.10;2.33;;;6.40;99.90;;;;;;5076577;28;20076;-66
2022/04/05 06:01:23;;;;;;;10.02;2.10;;;6.40;99.90;;;;;;5106105;28;20075;-67
2022/04/05 06:03:49;;;;;;;12.15;3.00;;;6.50;99.90;;;;;;5096197;28;20513;-66
2022/04/05 06:06:14;;;;;;;11.88;2.58;;;6.50;99.90;;;;;;5091345;28;20079;-66
2022/04/05 06:08:40;;;;;;;12.25;2.38;;;6.50;99.90;;;;;;5089579;28;20077;-66
2022/04/05 06:11:07;;;;;;;9.13;2.25;;;6.50;99.90;;;;;;5109798;28;20089;-66
2022/04/05 06:13:33;;;;;;;15.73;2.67;;;6.60;99.90;;;;;;5108869;28;20078;-66
2022/04/05 06:15:59;;;;;;;10.10;1.80;;;6.60;99.90;;;;;;5074274;28;20049;-66
2022/04/05 06:18:25;;;;;;;8.15;2.08;;;6.60;99.90;;;;;;5082626;28;20048;-66
2022/04/05 06:20:50;;;;;;;12.73;3.08;;;6.60;99.90;;;;;;5080548;28;20475;-66
2022/04/05 06:23:16;;;;;;;13.32;2.20;;;6.60;99.90;;;;;;5091659;28;20450;-66
2022/04/05 06:25:41;;;;;;;11.88;2.67;;;6.70;99.90;;;;;;5094967;28;20394;-67
2022/04/05 06:28:08;;;;;;;13.38;2.72;;;6.70;99.90;;;;;;5093317;28;20044;-66
2022/04/05 06:30:37;;;;;;;21.00;3.00;;;6.70;99.90;;;;;;5094498;28;20054;-66
2022/04/05 06:33:15;;;;;;;8.32;1.90;;;6.80;99.90;;;;;;5093572;28;20044;-66
2022/04/05 06:35:46;;;;;;;16.02;2.97;;;6.90;99.90;;;;;;5095175;28;20040;-66
2022/04/05 06:38:12;;;;;;;18.08;2.92;;;6.90;99.90;;;;;;5094029;28;20048;-67
2022/04/05 06:40:41;;;;;;;11.27;2.60;;;6.90;99.90;;;;;;5092437;28;20070;-66
2022/04/05 06:43:07;;;;;;;15.48;2.88;;;6.90;99.90;;;;;;5087457;28;20062;-66
2022/04/05 06:45:33;;;;;;;8.00;2.50;;;7.00;99.90;;;;;;5079808;28;20119;-66
2022/04/05 06:47:59;;;;;;;11.80;2.28;;;7.00;99.90;;;;;;5093538;28;20118;-67
2022/04/05 06:50:25;;;;;;;20.40;2.22;;;7.10;99.90;;;;;;5118650;27;20536;-66
2022/04/05 06:52:53;;;;;;;9.05;2.15;;;7.10;99.90;;;;;;5135750;27;20126;-66
2022/04/05 06:55:19;;;;;;;11.25;2.10;;;7.10;99.90;;;;;;5102925;28;20470;-66
2022/04/05 06:57:45;;;;;;;10.27;2.17;;;7.20;99.90;;;;;;5095832;28;20157;-66
2022/04/05 07:00:12;;;;;;;6.00;2.08;;;7.20;99.90;;;;;;5114209;28;20483;-66
2022/04/05 07:02:39;;;;;;;6.78;2.00;;;7.30;99.90;;;;;;5082569;28;20044;-66
2022/04/05 07:05:06;;;;;;;14.43;2.53;;;7.30;99.90;;;;;;5075456;28;20387;-67
2022/04/05 07:07:32;;;;;;;11.80;2.47;;;7.30;99.90;;;;;;5126276;27;20104;-66
2022/04/05 07:10:00;;;;;;;11.85;2.45;;;7.30;99.90;;;;;;5135154;27;20438;-66
2022/04/05 07:12:26;;;;;;;8.02;2.63;;;7.30;99.90;;;;;;5134747;27;20058;-66
2022/04/05 07:14:51;;;;;;;10.18;2.00;;;7.40;99.90;;;;;;5135467;27;20039;-66
2022/04/05 07:17:17;;;;;;;9.73;2.80;;;7.40;99.90;;;;;;5094988;28;20031;-66
2022/04/05 07:19:43;;;;;;;6.43;2.00;;;7.40;99.90;;;;;;5097472;27;20122;-66
2022/04/05 07:22:09;;;;;;;7.47;2.42;;;7.50;99.90;;;;;;5104383;28;20131;-67
2022/04/05 07:24:34;;;;;;;17.75;2.78;;;7.50;99.90;;;;;;5103833;27;20091;-66
2022/04/05 07:27:00;;;;;;;10.30;2.42;;;7.50;99.90;;;;;;5128416;27;20472;-66
2022/04/05 07:29:26;;;;;;;8.50;2.60;;;7.50;99.90;;;;;;5077219;28;20126;-66
2022/04/05 07:31:52;;;;;;;8.82;2.67;;;7.50;99.90;;;;;;5107997;27;20043;-66
2022/04/05 07:34:17;;;;;;;9.07;1.80;;;7.50;99.90;;;;;;5133554;27;20069;-66
2022/04/05 07:36:43;;;;;;;7.68;2.00;;;7.50;99.90;;;;;;5135081;27;20096;-66
2022/04/05 07:39:09;;;;;;;7.30;1.55;;;7.50;99.90;;;;;;5096200;28;20480;-66
2022/04/05 07:41:34;;;;;;;13.73;2.50;;;7.50;99.90;;;;;;5075346;28;20047;-66
2022/04/05 07:44:00;;;;;;;8.50;1.88;;;7.50;99.90;;;;;;5075607;28;20063;-66
2022/04/05 07:46:26;;;;;;;10.00;1.85;;;7.60;99.90;;;;;;5093785;28;20040;-66
2022/04/05 07:48:51;;;;;;;9.25;1.95;;;7.60;99.90;;;;;;5074799;28;20056;-66
2022/04/05 07:51:17;;;;;;;9.88;2.08;;;7.60;99.90;;;;;;5089609;27;20043;-66
2022/04/05 07:53:43;;;;;;;5.90;2.30;;;7.60;99.90;;;;;;5115586;27;20039;-66
2022/04/05 07:56:12;;;;;;;7.97;2.38;;;7.60;99.90;;;;;;5134261;27;20508;-66
2022/04/05 07:58:39;;;;;;;7.53;1.58;;;7.60;99.90;;;;;;5129311;27;20485;-66
2022/04/05 08:01:04;;;;;;;7.60;2.05;;;7.70;99.90;;;;;;5114105;27;20043;-67
2022/04/05 08:03:30;;;;;;;10.70;2.03;;;7.70;99.90;;;;;;5113857;27;20058;-67
2022/04/05 08:05:56;;;;;;;13.07;1.77;;;7.70;99.90;;;;;;5093000;28;20059;-67
2022/04/05 08:08:21;;;;;;;7.63;2.08;;;7.70;99.90;;;;;;5100755;28;20406;-66
2022/04/05 08:10:47;;;;;;;6.10;1.92;;;7.80;99.90;;;;;;5075168;28;20052;-66
2022/04/05 08:13:12;;;;;;;6.55;2.15;;;7.80;99.90;;;;;;5074677;28;20433;-66
2022/04/05 08:15:41;;;;;;;5.85;1.95;;;7.90;99.90;;;;;;5074115;28;20075;-66
2022/04/05 08:18:08;;;;;;;10.73;2.25;;;8.00;99.90;;;;;;5092791;28;20079;-66
2022/04/05 08:20:34;;;;;;;6.70;2.30;;;8.00;99.90;;;;;;5093107;28;20479;-66
2022/04/05 08:23:00;;;;;;;11.73;2.53;;;8.00;99.90;;;;;;5073702;28;20044;-66
2022/04/05 08:25:25;;;;;;;6.68;2.22;;;8.00;99.90;;;;;;5092996;27;20066;-68
2022/04/05 08:27:51;;;;;;;9.57;2.63;;;8.10;99.90;;;;;;5121813;27;20044;-67
2022/04/05 08:30:18;;;;;;;6.32;2.78;;;8.20;99.90;;;;;;5101509;27;20100;-67
2022/04/05 08:32:46;;;;;;;11.07;2.63;;;8.10;99.90;;;;;;5102158;27;20077;-67
2022/04/05 08:35:15;;;;;;;7.93;2.33;;;8.10;99.90;;;;;;5097831;27;20482;-67
2022/04/05 08:37:42;;;;;;;5.10;1.70;;;8.20;99.90;;;;;;5127096;27;20039;-67
2022/04/05 08:40:11;;;;;;;10.10;2.70;;;8.20;99.90;;;;;;5112576;27;20085;-67
2022/04/05 08:42:42;;;;;;;7.80;2.22;;;8.30;99.90;;;;;;5101240;28;20159;-68
2022/04/05 08:45:10;;;;;;;9.60;2.50;;;8.30;99.90;;;;;;5090886;28;20055;-67
2022/04/05 08:47:58;;;;;;;8.98;2.50;;;8.30;99.90;;;;;;5111504;28;20444;-66
2022/04/05 08:50:27;;;;;;;9.82;2.10;;;8.30;99.90;;;;;;5106502;27;20043;-67
2022/04/05 08:52:54;;;;;;;8.98;2.53;;;8.30;99.90;;;;;;5088773;28;20047;-67
2022/04/05 08:55:20;;;;;;;8.07;2.10;;;8.40;99.90;;;;;;5086345;27;20134;-67
2022/04/05 08:57:46;;;;;;;8.45;1.80;;;8.40;99.90;;;;;;5110763;27;20122;-66
2022/04/05 09:00:14;;;;;;;10.07;1.88;;;8.50;99.90;;;;;;5102772;27;20508;-67
2022/04/05 09:02:57;;;;;;;3.53;1.48;;;8.60;99.90;;;;;;5094132;28;20042;-67
2022/04/05 09:05:30;;;;;;;4.75;1.88;;;8.70;99.90;;;;;;5079384;28;20043;-67
2022/04/05 09:08:18;;;;;;;5.22;2.08;;;8.60;99.90;;;;;;5071574;28;20376;-67
2022/04/05 09:10:45;;;;;;;8.23;2.00;;;8.70;99.90;;;;;;5097590;28;20035;-67
2022/04/05 09:13:15;;;;;;;7.20;2.30;;;8.70;99.90;;;;;;5073568;28;20054;-67
2022/04/05 09:15:42;;;;;;;4.97;1.60;;;8.70;99.90;;;;;;5073556;28;20058;-67
2022/04/05 09:18:08;;;;;;;5.35;1.77;;;8.70;99.90;;;;;;5104063;28;20096;-67
2022/04/05 09:20:48;;;;;;;5.60;1.92;;;8.70;99.90;;;;;;5105030;28;20043;-68
2022/04/05 09:23:31;;;;;;;6.93;2.47;;;8.70;99.90;;;;;;5077570;28;20075;-68
2022/04/05 09:26:03;;;;;;;7.97;2.15;;;8.70;99.90;;;;;;5072582;28;20048;-68
2022/04/05 09:28:38;;;;;;;4.75;1.95;;;8.70;99.90;;;;;;5072755;28;20178;-68
2022/04/05 09:31:09;;;;;;;6.40;2.22;;;8.80;99.90;;;;;;5102646;28;20044;-68
2022/04/05 09:33:38;;;;;;;7.65;2.33;;;8.80;99.90;;;;;;5079792;28;20054;-68
2022/04/05 09:36:14;;;;;;;4.95;1.67;;;8.80;99.90;;;;;;5085178;28;20371;-68
2022/04/05 09:38:42;;;;;;;5.90;1.98;;;8.70;99.90;;;;;;5098764;28;20072;-68
2022/04/05 09:41:09;;;;;;;5.32;1.60;;;8.70;99.90;;;;;;5098931;28;20044;-68
2022/04/05 09:43:35;;;;;;;8.38;2.05;;;8.60;99.90;;;;;;5079063;28;20478;-67
2022/04/05 09:46:01;;;;;;;8.68;1.95;;;8.60;99.90;;;;;;5109244;28;20044;-67
2022/04/05 09:48:33;;;;;;;6.65;2.33;;;8.90;99.90;;;;;;5089807;28;20542;-68
2022/04/05 09:51:14;;;;;;;5.45;1.85;;;8.50;99.90;;;;;;5099844;28;20073;-67
2022/04/05 09:53:47;;;;;;;6.40;2.58;;;8.50;99.90;;;;;;5098981;28;20048;-67
2022/04/05 09:56:39;;;;;;;6.65;2.00;;;8.50;99.90;;;;;;5083411;28;20055;-68
2022/04/05 09:59:19;;;;;;;2.47;1.60;;;8.50;99.90;;;;;;5092871;28;20063;-67
2022/04/05 10:01:49;;;;;;;3.50;1.75;;;8.60;99.90;;;;;;5114098;28;20047;-70
2022/04/05 10:04:18;;;;;;;5.38;2.08;;;8.70;99.90;;;;;;5106790;27;20043;-70
2022/04/05 10:06:48;;;;;;;3.53;1.63;;;8.70;99.90;;;;;;5108373;27;20039;-70
2022/04/05 10:09:16;;;;;;;4.15;1.60;;;8.80;99.90;;;;;;5089851;28;20593;-69
2022/04/05 10:11:44;;;;;;;1.92;1.45;;;8.80;99.90;;;;;;5085588;28;20124;-69
2022/04/05 10:14:11;;;;;;;3.70;1.40;;;8.80;99.90;;;;;;5085464;28;20493;-68
2022/04/05 10:16:38;;;;;;;6.90;1.90;;;8.70;99.90;;;;;;5082128;28;20492;-70
2022/04/05 10:19:09;;;;;;;2.45;1.42;;;8.70;99.90;;;;;;5100061;28;20382;-70
2022/04/05 10:21:37;;;;;;;5.70;1.42;;;8.70;99.90;;;;;;5076096;28;20051;-69
2022/04/05 10:24:05;;;;;;;12.27;1.98;;;8.70;99.90;;;;;;5102417;28;20380;-68
2022/04/05 10:26:33;;;;;;;1.25;1.10;;;8.70;99.90;;;;;;5097119;28;20040;-68
2022/04/05 10:29:02;;;;;;;1.65;1.08;;;8.70;99.90;;;;;;5085112;28;20040;-69
2022/04/05 10:31:45;;;;;;;2.05;0.80;;;8.80;99.90;;;;;;5089266;28;20047;-68
2022/04/05 10:34:31;;;;;;;2.10;1.13;;;8.80;99.90;;;;;;5101821;28;20050;-67
2022/04/05 10:37:06;;;;;;;2.35;1.05;;;8.80;99.90;;;;;;5087957;28;20047;-67
2022/04/05 10:39:32;;;;;;;2.92;1.33;;;8.80;99.90;;;;;;5093522;28;20043;-71
2022/04/05 10:42:12;;;;;;;1.98;0.70;;;8.80;99.90;;;;;;5103279;28;20040;-72
2022/04/05 10:44:48;;;;;;;3.08;0.75;;;8.90;99.90;;;;;;5086273;28;20497;-71
2022/04/05 10:47:14;;;;;;;1.05;0.88;;;9.50;99.90;;;;;;5093480;28;20036;-71
2022/04/05 10:49:51;;;;;;;1.80;0.90;;;8.90;99.90;;;;;;5101725;28;20124;-71
2022/04/05 10:52:24;;;;;;;2.80;1.08;;;8.90;99.90;;;;;;5076261;28;20073;-71
2022/04/05 10:55:02;;;;;;;;;;;8.90;99.90;;;;;;5103897;28;20058;-71
2022/04/05 10:57:30;;;;;;;1.38;1.27;;;9.00;99.90;;;;;;5092795;28;19964;-71
2022/04/05 11:00:04;;;;;;;1.60;1.30;;;9.10;99.90;;;;;;5114265;28;20365;-71
2022/04/05 11:02:30;;;;;;;1.52;1.42;;;9.10;99.90;;;;;;5114516;28;20051;-71
2022/04/05 11:05:27;;;;;;;4.10;2.00;;;9.10;99.90;;;;;;5088538;28;20048;-70
2022/04/05 11:08:00;;;;;;;1.38;1.27;;;9.20;99.90;;;;;;5082846;28;20044;-71
2022/04/05 11:10:26;;;;;;;5.15;1.50;;;9.20;99.90;;;;;;5095478;28;20055;-70
2022/04/05 11:13:13;;;;;;;2.92;1.35;;;9.20;99.90;;;;;;5094798;28;20094;-70
2022/04/05 11:15:41;;;;;;;1.30;1.15;;;9.30;99.90;;;;;;5095481;28;20131;-70
2022/04/05 11:18:12;;;;;;;1.40;1.30;;;9.40;99.90;;;;;;5084191;28;20118;-70
2022/04/05 11:20:41;;;;;;;1.58;1.20;;;9.40;99.90;;;;;;5101138;28;20075;-70
2022/04/05 11:23:08;;;;;;;1.80;1.23;;;9.40;99.90;;;;;;5075206;28;20044;-70
2022/04/05 11:25:34;;;;;;;1.58;1.10;;;9.40;99.90;;;;;;5093061;28;20094;-71
2022/04/05 11:28:16;;;;;;;1.25;1.05;;;9.30;99.90;;;;;;5076225;28;20044;-71
2022/04/05 11:30:54;;;;;;;3.83;1.40;;;9.40;99.90;;;;;;5076601;28;20035;-72
2022/04/05 11:33:26;;;;;;;1.52;1.02;;;9.40;99.90;;;;;;5074763;28;20399;-71
2022/04/05 11:36:14;;;;;;;2.85;1.27;;;9.40;99.90;;;;;;5093480;28;20102;-71
2022/04/05 11:38:46;;;;;;;1.38;1.05;;;9.40;99.90;;;;;;5093118;28;20052;-71
2022/04/05 11:41:19;;;;;;;1.23;1.13;;;9.40;99.90;;;;;;5074331;28;20036;-70
2022/04/05 11:43:48;;;;;;;1.20;0.90;;;9.40;99.90;;;;;;5075221;28;20108;-70
2022/04/05 11:46:18;;;;;;;1.42;1.05;;;9.40;99.90;;;;;;5074254;28;20539;-70
2022/04/05 11:48:47;;;;;;;1.08;1.02;;;9.40;99.90;;;;;;5093144;28;20395;-70
2022/04/05 11:51:15;;;;;;;0.95;0.93;;;9.50;99.90;;;;;;5093738;28;20428;-70
2022/04/05 11:53:42;;;;;;;1.00;0.90;;;9.50;99.90;;;;;;5090350;28;20063;-70
2022/04/05 11:56:27;;;;;;;1.20;1.10;;;9.60;99.90;;;;;;5074337;28;20079;-70
2022/04/05 11:58:55;;;;;;;1.30;1.17;;;9.70;99.90;;;;;;5092838;28;20448;-70
2022/04/05 12:01:36;;;;;;;0.98;0.95;;;9.80;99.90;;;;;;5091338;28;20048;-70
2022/04/05 12:04:04;;;;;;;1.95;1.13;;;9.90;99.90;;;;;;5098921;28;20738;-70
2022/04/05 12:06:34;;;;;;;1.10;1.00;;;10.10;99.90;;;;;;5105807;28;20056;-70
2022/04/05 12:09:03;;;;;;;1.15;1.02;;;10.20;99.90;;;;;;5090197;28;20079;-70
2022/04/05 12:11:31;;;;;;;1.67;1.25;;;10.30;99.90;;;;;;5093068;28;20102;-70
2022/04/05 12:14:11;;;;;;;1.02;0.93;;;10.40;99.90;;;;;;5091771;28;20067;-69
2022/04/05 12:16:48;;;;;;;1.05;0.95;;;10.60;99.90;;;;;;5074732;28;20127;-70
2022/04/05 12:19:40;;;;;;;1.17;1.05;;;10.70;99.90;;;;;;5074570;28;20044;-70
2022/04/05 12:22:11;;;;;;;1.65;1.55;;;10.70;99.90;;;;;;5088846;28;20410;-70
2022/04/05 12:24:53;;;;;;;1.52;1.42;;;10.60;99.90;;;;;;5093142;28;20032;-70
2022/04/05 12:27:21;;;;;;;1.25;1.15;;;10.70;99.90;;;;;;5092520;28;20102;-70
2022/04/05 12:29:47;;;;;;;2.45;1.30;;;10.80;99.90;;;;;;5072401;28;20040;-70
2022/04/05 12:32:14;;;;;;;1.27;1.17;;;10.80;99.90;;;;;;5073034;28;20085;-70
2022/04/05 12:34:40;;;;;;;1.20;1.00;;;10.80;99.90;;;;;;5092208;28;20053;-70
2022/04/05 12:37:10;;;;;;;1.55;1.45;;;10.70;99.90;;;;;;5090766;28;20486;-70
2022/04/05 12:39:48;;;;;;;1.98;1.50;;;10.70;99.90;;;;;;5084920;28;20064;-70
2022/04/05 12:42:14;;;;;;;1.63;1.45;;;10.60;99.90;;;;;;5073245;28;20103;-70
2022/04/05 12:44:45;;;;;;;2.10;1.95;;;10.50;99.90;;;;;;5073898;28;20103;-70
2022/04/05 12:47:12;;;;;;;1.60;1.50;;;10.50;99.90;;;;;;5074022;28;20040;-70
2022/04/05 12:49:50;;;;;;;1.40;1.30;;;10.40;99.90;;;;;;5073194;28;20492;-70
2022/04/05 12:52:24;;;;;;;1.85;1.60;;;10.40;99.90;;;;;;5102807;28;20442;-70
2022/04/05 12:55:00;;;;;;;2.15;1.95;;;10.40;99.90;;;;;;5094541;28;20502;-70
2022/04/05 12:57:36;;;;;;;2.22;2.00;;;10.30;99.90;;;;;;5080616;28;20097;-70
2022/04/05 13:00:13;;;;;;;2.17;1.98;;;10.30;99.90;;;;;;5105817;28;20044;-70